Check out our new BloomSky Weather System.

Active alerts

Houston, TX
  Details for Houston, TX Dense Fog Advisory


Thunder radar  blitzortung!


Rain radar more information rain snow radar


Visit our other weather sites:

Template documentation
and downloads

And another site



Weather Underground History page Text

Daily Summary for March 1, 2017 Units:  English    Metric   Both
« Previous Day
Next Day »
Daily Weekly Monthly Yearly Custom
  High: Low: Average:
Temperature: 81.1 °F 58.6 °F 72.7 °F
Dew Point: 72.3 °F 28.9 °F 55.9 °F
Humidity: 92 % 30 % 60 %
Wind Speed: 15.0 mph 0.0 mph 4.7 mph
Wind Gust: 20.0 mph - -
Wind:- - WSW
Pressure: 30.21 in 29.87 in -
Precipitation: 0.00 in    
Historical Graphs
 
 
Tabular Data for March 1, 2017
Time Temperature Dew Point Pressure Wind Wind Speed Wind Gust Humidity Rainfall Rate (Hourly)
00:02 74.5 °F 71.4 °F 29.89 in SSE 5.0 mph 12.0 mph 90 % 0.00 in
00:07 74.5 °F 71.4 °F 29.89 in ESE 2.0 mph 9.0 mph 90 % 0.00 in
00:12 74.5 °F 71.4 °F 29.89 in SE 5.0 mph 9.0 mph 90 % 0.00 in
00:17 74.5 °F 71.4 °F 29.89 in South 4.0 mph 9.0 mph 90 % 0.00 in
00:23 74.5 °F 71.4 °F 29.88 in SE 4.0 mph 9.0 mph 90 % 0.00 in
00:28 74.5 °F 71.4 °F 29.88 in SSW 4.0 mph 10.0 mph 90 % 0.00 in
00:33 74.5 °F 71.4 °F 29.88 in SE 6.0 mph 10.0 mph 90 % 0.00 in
00:38 74.5 °F 71.1 °F 29.88 in SSE 6.0 mph 11.0 mph 89 % 0.00 in
00:43 74.5 °F 71.4 °F 29.88 in SSE 3.0 mph 11.0 mph 90 % 0.00 in
00:48 74.3 °F 71.2 °F 29.88 in SSE 3.0 mph 11.0 mph 90 % 0.00 in
00:53 74.3 °F 71.2 °F 29.88 in ESE 5.0 mph 9.0 mph 90 % 0.00 in
00:58 74.3 °F 71.2 °F 29.87 in SE 5.0 mph 9.0 mph 90 % 0.00 in
01:03 74.3 °F 71.2 °F 29.87 in SSW 5.0 mph 12.0 mph 90 % 0.00 in
01:08 74.3 °F 71.2 °F 29.88 in SE 4.0 mph 12.0 mph 90 % 0.00 in
01:13 74.3 °F 71.2 °F 29.88 in South 5.0 mph 12.0 mph 90 % 0.00 in
01:18 74.1 °F 71.1 °F 29.88 in SW 9.0 mph 11.0 mph 90 % 0.00 in
01:23 74.1 °F 71.1 °F 29.88 in SSW 4.0 mph 10.0 mph 90 % 0.00 in
01:28 74.1 °F 71.2 °F 29.88 in SSE 2.0 mph 9.0 mph 91 % 0.00 in
01:33 74.1 °F 71.2 °F 29.88 in South 3.0 mph 9.0 mph 91 % 0.00 in
01:38 74.1 °F 71.2 °F 29.87 in ESE 4.0 mph 9.0 mph 91 % 0.00 in
01:43 74.1 °F 71.2 °F 29.88 in SE 2.0 mph 10.0 mph 91 % 0.00 in
01:48 74.1 °F 71.2 °F 29.88 in South 6.0 mph 10.0 mph 91 % 0.00 in
01:53 74.1 °F 71.2 °F 29.88 in South 4.0 mph 10.0 mph 91 % 0.00 in
01:58 74.1 °F 71.2 °F 29.88 in ESE 3.0 mph 9.0 mph 91 % 0.00 in
02:03 74.1 °F 71.2 °F 29.88 in SSE 5.0 mph 9.0 mph 91 % 0.00 in
02:08 74.1 °F 71.2 °F 29.88 in South 3.0 mph 10.0 mph 91 % 0.00 in
02:27 73.9 °F 71.1 °F 29.87 in SSE 3.0 mph 7.0 mph 91 % 0.00 in
02:32 73.9 °F 71.1 °F 29.87 in SE 4.0 mph 10.0 mph 91 % 0.00 in
02:37 73.9 °F 71.1 °F 29.87 in SSE 5.0 mph 11.0 mph 91 % 0.00 in
02:42 73.9 °F 70.9 °F 29.87 in SSW 8.0 mph 11.0 mph 90 % 0.00 in
02:47 73.9 °F 70.9 °F 29.88 in SW 5.0 mph 12.0 mph 90 % 0.00 in
02:52 74.1 °F 71.1 °F 29.88 in SSW 4.0 mph 12.0 mph 90 % 0.00 in
02:57 74.1 °F 71.1 °F 29.87 in SSE 5.0 mph 12.0 mph 90 % 0.00 in
03:02 74.1 °F 71.1 °F 29.87 in South 3.0 mph 9.0 mph 90 % 0.00 in
03:07 74.3 °F 71.2 °F 29.88 in SE 3.0 mph 9.0 mph 90 % 0.00 in
03:12 74.3 °F 71.2 °F 29.87 in SSW 4.0 mph 9.0 mph 90 % 0.00 in
03:17 74.3 °F 71.2 °F 29.88 in South 3.0 mph 9.0 mph 90 % 0.00 in
03:22 74.3 °F 71.2 °F 29.87 in South 5.0 mph 9.0 mph 90 % 0.00 in
03:27 74.3 °F 71.2 °F 29.87 in SSE 4.0 mph 10.0 mph 90 % 0.00 in
03:32 74.3 °F 71.2 °F 29.87 in South 3.0 mph 10.0 mph 90 % 0.00 in
03:37 74.3 °F 71.2 °F 29.87 in SSW 3.0 mph 10.0 mph 90 % 0.00 in
03:49 74.3 °F 71.2 °F 29.87 in South 5.0 mph 10.0 mph 90 % 0.00 in
03:54 74.3 °F 71.2 °F 29.88 in South 1.0 mph 11.0 mph 90 % 0.00 in
03:59 74.3 °F 71.2 °F 29.88 in South 5.0 mph 11.0 mph 90 % 0.00 in
04:04 74.1 °F 71.1 °F 29.88 in South 2.0 mph 11.0 mph 90 % 0.00 in
04:09 74.1 °F 71.1 °F 29.88 in SSE 3.0 mph 9.0 mph 90 % 0.00 in
04:14 74.1 °F 71.1 °F 29.88 in SE 7.0 mph 9.0 mph 90 % 0.00 in
04:19 74.1 °F 70.7 °F 29.88 in SSW 5.0 mph 9.0 mph 89 % 0.00 in
04:24 74.1 °F 70.7 °F 29.88 in SSW 3.0 mph 12.0 mph 89 % 0.00 in
04:29 74.1 °F 70.7 °F 29.88 in SSW 7.0 mph 12.0 mph 89 % 0.00 in
04:34 74.1 °F 70.7 °F 29.89 in SSW 1.0 mph 12.0 mph 89 % 0.00 in
04:39 74.1 °F 70.7 °F 29.89 in SSW 5.0 mph 11.0 mph 89 % 0.00 in
04:44 74.1 °F 70.7 °F 29.89 in SW 9.0 mph 11.0 mph 89 % 0.00 in
04:45 74.1 °F 70.7 °F 29.89 in SSW 2.0 mph 11.0 mph 89 % 0.00 in
04:50 74.1 °F 70.7 °F 29.89 in South 4.0 mph 9.0 mph 89 % 0.00 in
04:55 73.9 °F 70.5 °F 29.89 in South 5.0 mph 9.0 mph 89 % 0.00 in
05:00 73.9 °F 70.9 °F 29.89 in SW 3.0 mph 9.0 mph 90 % 0.00 in
05:05 73.9 °F 70.9 °F 29.90 in SSW 6.0 mph 8.0 mph 90 % 0.00 in
05:10 73.9 °F 70.9 °F 29.91 in SW 2.0 mph 8.0 mph 90 % 0.00 in
05:15 73.8 °F 70.7 °F 29.92 in WSW 1.0 mph 8.0 mph 90 % 0.00 in
05:20 73.8 °F 70.7 °F 29.95 in NNW 3.0 mph 7.0 mph 90 % 0.00 in
05:25 73.9 °F 70.9 °F 29.96 in NNW 1.0 mph 5.0 mph 90 % 0.00 in
05:30 73.9 °F 70.9 °F 29.95 in West 2.0 mph 7.0 mph 90 % 0.00 in
05:35 73.9 °F 70.9 °F 29.95 in SW 3.0 mph 8.0 mph 90 % 0.00 in
05:40 73.9 °F 70.9 °F 29.95 in WSW 1.0 mph 8.0 mph 90 % 0.00 in
05:45 73.9 °F 70.9 °F 29.95 in WSW 1.0 mph 5.0 mph 90 % 0.00 in
05:50 73.8 °F 70.7 °F 29.95 in WSW 1.0 mph 5.0 mph 90 % 0.00 in
05:55 73.8 °F 70.7 °F 29.95 in Calm   5.0 mph 90 % 0.00 in
06:00 73.6 °F 70.5 °F 29.95 in Calm   4.0 mph 90 % 0.00 in
06:05 73.6 °F 70.7 °F 29.96 in WSW 1.0 mph 4.0 mph 91 % 0.00 in
06:10 73.6 °F 70.7 °F 29.96 in SW 1.0 mph 4.0 mph 91 % 0.00 in
06:11 73.6 °F 70.7 °F 29.96 in WNW 1.0 mph 4.0 mph 91 % 0.00 in
06:16 73.4 °F 70.5 °F 29.95 in Calm   4.0 mph 91 % 0.00 in
06:21 73.2 °F 70.5 °F 29.95 in Calm   3.0 mph 91 % 0.00 in
06:26 73.2 °F 70.5 °F 29.95 in Calm   2.0 mph 91 % 0.00 in
06:31 73.0 °F 70.3 °F 29.95 in SSE 1.0 mph 2.0 mph 91 % 0.00 in
06:36 73.0 °F 70.3 °F 29.96 in Calm   2.0 mph 91 % 0.00 in
06:41 73.0 °F 70.5 °F 29.96 in Calm   2.0 mph 92 % 0.00 in
06:46 72.9 °F 70.3 °F 29.96 in Calm   2.0 mph 92 % 0.00 in
06:51 72.9 °F 70.3 °F 29.96 in Calm   2.0 mph 92 % 0.00 in
06:56 72.7 °F 70.2 °F 29.96 in Calm   2.0 mph 92 % 0.00 in
07:01 72.7 °F 70.2 °F 29.96 in Calm   2.0 mph 92 % 0.00 in
07:06 72.7 °F 70.2 °F 29.96 in Calm   2.0 mph 92 % 0.00 in
07:12 72.7 °F 70.2 °F 29.96 in Calm   2.0 mph 92 % 0.00 in
07:17 72.5 °F 70.0 °F 29.95 in SE 2.0 mph 2.0 mph 92 % 0.00 in
07:22 72.7 °F 70.2 °F 29.94 in SE 3.0 mph 4.0 mph 92 % 0.00 in
07:27 72.9 °F 70.3 °F 29.95 in SSE 4.0 mph 6.0 mph 92 % 0.00 in
07:32 72.9 °F 70.3 °F 29.95 in Calm   6.0 mph 92 % 0.00 in
07:37 72.9 °F 70.3 °F 29.95 in Calm   6.0 mph 92 % 0.00 in
07:42 73.0 °F 70.3 °F 29.95 in Calm   4.0 mph 91 % 0.00 in
07:47 73.0 °F 70.3 °F 29.95 in South 1.0 mph 2.0 mph 91 % 0.00 in
07:52 73.2 °F 70.5 °F 29.96 in South 1.0 mph 2.0 mph 91 % 0.00 in
07:57 73.2 °F 70.5 °F 29.96 in SSE 1.0 mph 2.0 mph 91 % 0.00 in
08:02 73.6 °F 70.7 °F 29.96 in SE 1.0 mph 2.0 mph 91 % 0.00 in
08:07 73.8 °F 70.9 °F 29.96 in SSE 3.0 mph 3.0 mph 91 % 0.00 in
08:12 74.1 °F 71.2 °F 29.96 in SSW 1.0 mph 3.0 mph 91 % 0.00 in
08:17 74.5 °F 71.1 °F 29.96 in SW 2.0 mph 4.0 mph 89 % 0.00 in
08:22 74.8 °F 71.4 °F 29.97 in SSE 2.0 mph 4.0 mph 89 % 0.00 in
08:27 75.4 °F 71.6 °F 29.97 in SSW 4.0 mph 6.0 mph 88 % 0.00 in
08:32 75.7 °F 71.6 °F 29.97 in SSW 1.0 mph 6.0 mph 87 % 0.00 in
08:37 76.3 °F 71.8 °F 29.97 in SSW 1.0 mph 6.0 mph 86 % 0.00 in
08:42 76.5 °F 71.6 °F 29.98 in SW 2.0 mph 5.0 mph 85 % 0.00 in
08:47 77.2 °F 72.3 °F 29.98 in Calm   5.0 mph 85 % 0.00 in
08:52 77.5 °F 72.0 °F 29.98 in SW 1.0 mph 5.0 mph 83 % 0.00 in
08:57 78.1 °F 72.1 °F 29.98 in Calm   5.0 mph 82 % 0.00 in
09:02 78.4 °F 71.8 °F 29.98 in SW 1.0 mph 5.0 mph 80 % 0.00 in
09:07 78.4 °F 71.1 °F 29.98 in SW 1.0 mph 5.0 mph 78 % 0.00 in
09:12 78.4 °F 71.4 °F 29.98 in North 2.0 mph 6.0 mph 79 % 0.00 in
09:17 78.3 °F 70.5 °F 29.99 in WNW 5.0 mph 7.0 mph 77 % 0.00 in
09:22 78.4 °F 71.1 °F 29.99 in WNW 2.0 mph 7.0 mph 78 % 0.00 in
09:27 79.0 °F 71.1 °F 29.99 in South 1.0 mph 7.0 mph 77 % 0.00 in
09:32 79.0 °F 70.7 °F 29.99 in Calm   7.0 mph 76 % 0.00 in
09:37 79.3 °F 70.7 °F 29.99 in North 2.0 mph 8.0 mph 75 % 0.00 in
09:42 79.2 °F 70.2 °F 29.99 in West 2.0 mph 8.0 mph 74 % 0.00 in
09:47 79.3 °F 70.3 °F 29.99 in West 3.0 mph 8.0 mph 74 % 0.00 in
09:52 79.2 °F 68.9 °F 30.00 in NNW 6.0 mph 8.0 mph 71 % 0.00 in
09:57 79.0 °F 69.6 °F 30.00 in NW 2.0 mph 10.0 mph 73 % 0.00 in
10:02 79.3 °F 68.7 °F 30.00 in NW 2.0 mph 10.0 mph 70 % 0.00 in
10:07 79.3 °F 67.8 °F 30.00 in NW 7.0 mph 13.0 mph 68 % 0.00 in
10:12 79.3 °F 66.9 °F 30.00 in NW 4.0 mph 13.0 mph 66 % 0.00 in
10:17 79.7 °F 66.0 °F 30.01 in NNW 5.0 mph 13.0 mph 63 % 0.00 in
10:22 80.1 °F 64.4 °F 30.01 in NNW 6.0 mph 11.0 mph 59 % 0.00 in
10:27 80.1 °F 65.5 °F 30.01 in NNW 4.0 mph 12.0 mph 61 % 0.00 in
10:32 80.4 °F 65.3 °F 30.01 in WNW 8.0 mph 12.0 mph 60 % 0.00 in
10:37 80.4 °F 63.9 °F 30.01 in NW 5.0 mph 12.0 mph 57 % 0.00 in
10:42 80.4 °F 64.2 °F 30.01 in NW 4.0 mph 10.0 mph 58 % 0.00 in
10:47 80.6 °F 64.4 °F 30.01 in NW 5.0 mph 12.0 mph 58 % 0.00 in
10:52 80.4 °F 64.2 °F 30.02 in NW 9.0 mph 12.0 mph 58 % 0.00 in
10:57 80.4 °F 64.8 °F 30.01 in NW 5.0 mph 12.0 mph 59 % 0.00 in
11:02 80.8 °F 64.6 °F 30.02 in NW 6.0 mph 14.0 mph 58 % 0.00 in
11:07 80.2 °F 64.0 °F 30.02 in NW 3.0 mph 14.0 mph 58 % 0.00 in
11:12 80.4 °F 63.9 °F 30.02 in NNW 5.0 mph 14.0 mph 57 % 0.00 in
11:17 81.0 °F 64.2 °F 30.02 in NW 7.0 mph 13.0 mph 57 % 0.00 in
11:22 80.4 °F 63.9 °F 30.02 in NW 6.0 mph 9.0 mph 57 % 0.00 in
11:27 80.4 °F 62.8 °F 30.02 in WNW 7.0 mph 10.0 mph 55 % 0.00 in
11:32 80.6 °F 63.5 °F 30.02 in WNW 5.0 mph 12.0 mph 56 % 0.00 in
11:37 81.1 °F 63.5 °F 30.03 in NW 8.0 mph 12.0 mph 55 % 0.00 in
11:42 81.1 °F 62.4 °F 30.02 in NW 12.0 mph 12.0 mph 53 % 0.00 in
11:47 80.8 °F 62.6 °F 30.02 in NW 6.0 mph 15.0 mph 54 % 0.00 in
11:52 80.4 °F 60.6 °F 30.02 in WNW 7.0 mph 20.0 mph 51 % 0.00 in
11:57 80.2 °F 61.0 °F 30.02 in NNW 9.0 mph 20.0 mph 52 % 0.00 in
12:02 80.4 °F 62.2 °F 30.02 in NW 4.0 mph 20.0 mph 54 % 0.00 in
12:07 81.0 °F 62.8 °F 30.02 in NW 7.0 mph 13.0 mph 54 % 0.00 in
12:12 80.8 °F 61.0 °F 30.02 in NW 7.0 mph 12.0 mph 51 % 0.00 in
12:17 80.4 °F 60.1 °F 30.02 in NNW 5.0 mph 13.0 mph 50 % 0.00 in
12:22 80.4 °F 59.0 °F 30.02 in NNW 10.0 mph 13.0 mph 48 % 0.00 in
12:27 80.8 °F 58.1 °F 30.02 in North 10.0 mph 13.0 mph 46 % 0.00 in
12:32 80.2 °F 56.3 °F 30.02 in NW 6.0 mph 14.0 mph 44 % 0.00 in
12:37 80.4 °F 57.7 °F 30.02 in WNW 8.0 mph 14.0 mph 46 % 0.00 in
12:42 81.0 °F 58.8 °F 30.02 in NNW 8.0 mph 14.0 mph 47 % 0.00 in
12:47 80.1 °F 58.1 °F 30.02 in West 5.0 mph 14.0 mph 47 % 0.00 in
12:52 79.9 °F 57.9 °F 30.02 in NW 3.0 mph 14.0 mph 47 % 0.00 in
12:57 79.9 °F 57.9 °F 30.02 in NNW 5.0 mph 15.0 mph 47 % 0.00 in
13:02 79.7 °F 57.0 °F 30.01 in NNW 4.0 mph 15.0 mph 46 % 0.00 in
13:07 79.7 °F 58.3 °F 30.02 in WNW 4.0 mph 15.0 mph 48 % 0.00 in
13:12 79.9 °F 57.9 °F 30.01 in North 6.0 mph 15.0 mph 47 % 0.00 in
13:17 80.1 °F 57.4 °F 30.01 in North 15.0 mph 15.0 mph 46 % 0.00 in
13:22 79.5 °F 52.3 °F 30.02 in West 6.0 mph 15.0 mph 39 % 0.00 in
13:27 79.0 °F 48.9 °F 30.02 in NW 8.0 mph 15.0 mph 35 % 0.00 in
13:32 78.4 °F 48.6 °F 30.02 in West 11.0 mph 15.0 mph 35 % 0.00 in
13:37 78.3 °F 49.1 °F 30.02 in NNW 7.0 mph 18.0 mph 36 % 0.00 in
13:42 78.4 °F 50.0 °F 30.02 in NNW 5.0 mph 18.0 mph 37 % 0.00 in
13:47 78.4 °F 49.3 °F 30.02 in NNW 6.0 mph 18.0 mph 36 % 0.00 in
13:52 78.3 °F 48.4 °F 30.02 in North 11.0 mph 15.0 mph 35 % 0.00 in
13:57 77.7 °F 47.1 °F 30.02 in NW 8.0 mph 16.0 mph 34 % 0.00 in
14:02 77.9 °F 45.7 °F 30.02 in NW 8.0 mph 19.0 mph 32 % 0.00 in
14:07 78.1 °F 48.2 °F 30.02 in WNW 9.0 mph 19.0 mph 35 % 0.00 in
14:12 78.1 °F 48.9 °F 30.02 in NNW 8.0 mph 19.0 mph 36 % 0.00 in
14:17 78.3 °F 47.7 °F 30.02 in NNW 15.0 mph 16.0 mph 34 % 0.00 in
14:22 78.1 °F 48.2 °F 30.02 in North 7.0 mph 16.0 mph 35 % 0.00 in
14:27 77.5 °F 46.2 °F 30.02 in North 8.0 mph 16.0 mph 33 % 0.00 in
14:32 76.6 °F 45.3 °F 30.02 in NNW 13.0 mph 16.0 mph 33 % 0.00 in
14:37 76.6 °F 45.3 °F 30.02 in NNW 10.0 mph 16.0 mph 33 % 0.00 in
14:42 76.5 °F 45.1 °F 30.02 in NNW 7.0 mph 16.0 mph 33 % 0.00 in
14:47 76.3 °F 45.1 °F 30.03 in NW 7.0 mph 16.0 mph 33 % 0.00 in
14:52 75.9 °F 45.5 °F 30.03 in North 8.0 mph 16.0 mph 34 % 0.00 in
14:57 75.9 °F 47.8 °F 30.03 in North 7.0 mph 16.0 mph 37 % 0.00 in
15:02 75.7 °F 45.3 °F 30.03 in NNW 7.0 mph 15.0 mph 34 % 0.00 in
15:07 75.6 °F 46.8 °F 30.03 in WNW 4.0 mph 18.0 mph 36 % 0.00 in
15:12 75.7 °F 46.9 °F 30.03 in North 9.0 mph 18.0 mph 36 % 0.00 in
15:17 75.4 °F 47.3 °F 30.03 in WNW 9.0 mph 18.0 mph 37 % 0.00 in
15:22 75.4 °F 47.3 °F 30.03 in West 8.0 mph 14.0 mph 37 % 0.00 in
15:27 75.2 °F 47.1 °F 30.03 in NNW 8.0 mph 20.0 mph 37 % 0.00 in
15:32 75.4 °F 47.3 °F 30.03 in WNW 6.0 mph 20.0 mph 37 % 0.00 in
15:33 75.6 °F 47.5 °F 30.03 in WNW 6.0 mph 20.0 mph 37 % 0.00 in
15:38 75.6 °F 48.2 °F 30.03 in WNW 7.0 mph 20.0 mph 38 % 0.00 in
15:43 74.8 °F 43.9 °F 30.03 in NNW 13.0 mph 18.0 mph 33 % 0.00 in
15:48 74.7 °F 45.9 °F 30.03 in North 9.0 mph 19.0 mph 36 % 0.00 in
15:53 74.5 °F 46.6 °F 30.03 in NNW 8.0 mph 19.0 mph 37 % 0.00 in
15:58 73.9 °F 45.3 °F 30.03 in NNW 6.0 mph 19.0 mph 36 % 0.00 in
16:03 73.4 °F 44.1 °F 30.04 in North 14.0 mph 17.0 mph 35 % 0.00 in
16:08 72.9 °F 44.4 °F 30.04 in WSW 13.0 mph 18.0 mph 36 % 0.00 in
16:13 72.7 °F 45.0 °F 30.04 in North 10.0 mph 18.0 mph 37 % 0.00 in
16:18 72.3 °F 45.3 °F 30.04 in North 10.0 mph 18.0 mph 38 % 0.00 in
16:23 72.0 °F 44.2 °F 30.04 in NW 10.0 mph 16.0 mph 37 % 0.00 in
16:28 72.0 °F 44.2 °F 30.04 in WNW 10.0 mph 16.0 mph 37 % 0.00 in
16:33 71.8 °F 43.3 °F 30.04 in NW 10.0 mph 16.0 mph 36 % 0.00 in
16:38 71.6 °F 43.9 °F 30.04 in NNW 7.0 mph 19.0 mph 37 % 0.00 in
16:43 71.4 °F 43.7 °F 30.04 in NNW 11.0 mph 19.0 mph 37 % 0.00 in
16:48 71.4 °F 43.7 °F 30.05 in NW 10.0 mph 19.0 mph 37 % 0.00 in
16:53 71.2 °F 43.7 °F 30.05 in NW 7.0 mph 18.0 mph 37 % 0.00 in
16:58 71.1 °F 44.2 °F 30.05 in NW 4.0 mph 18.0 mph 38 % 0.00 in
17:03 71.1 °F 44.2 °F 30.05 in NNW 7.0 mph 18.0 mph 38 % 0.00 in
17:08 70.9 °F 44.1 °F 30.05 in NW 8.0 mph 16.0 mph 38 % 0.00 in
17:13 70.7 °F 43.9 °F 30.05 in NNW 7.0 mph 18.0 mph 38 % 0.00 in
17:18 70.7 °F 43.9 °F 30.06 in NW 5.0 mph 18.0 mph 38 % 0.00 in
17:23 70.5 °F 44.4 °F 30.06 in North 14.0 mph 18.0 mph 39 % 0.00 in
17:28 70.3 °F 44.2 °F 30.06 in NW 6.0 mph 15.0 mph 39 % 0.00 in
17:33 70.2 °F 44.1 °F 30.06 in NW 9.0 mph 14.0 mph 39 % 0.00 in
17:38 70.0 °F 43.2 °F 30.06 in NW 9.0 mph 16.0 mph 38 % 0.00 in
17:43 69.6 °F 43.5 °F 30.06 in North 7.0 mph 16.0 mph 39 % 0.00 in
17:48 69.6 °F 43.5 °F 30.07 in WNW 9.0 mph 16.0 mph 39 % 0.00 in
17:53 69.4 °F 42.8 °F 30.07 in NW 5.0 mph 12.0 mph 38 % 0.00 in
17:58 69.3 °F 43.2 °F 30.07 in NW 5.0 mph 12.0 mph 39 % 0.00 in
18:03 69.3 °F 43.2 °F 30.08 in NNW 3.0 mph 12.0 mph 39 % 0.00 in
18:08 69.1 °F 43.2 °F 30.07 in NNW 7.0 mph 11.0 mph 39 % 0.00 in
18:13 68.7 °F 43.3 °F 30.08 in NNW 6.0 mph 13.0 mph 40 % 0.00 in
18:18 68.5 °F 43.3 °F 30.08 in WNW 3.0 mph 13.0 mph 40 % 0.00 in
18:24 68.5 °F 42.6 °F 30.08 in NW 6.0 mph 13.0 mph 39 % 0.00 in
18:29 68.4 °F 42.4 °F 30.09 in NNW 6.0 mph 10.0 mph 39 % 0.00 in
18:34 68.4 °F 42.4 °F 30.09 in NW 4.0 mph 11.0 mph 39 % 0.00 in
18:39 68.2 °F 42.3 °F 30.09 in NW 4.0 mph 13.0 mph 39 % 0.00 in
18:44 68.0 °F 42.1 °F 30.09 in WNW 4.0 mph 13.0 mph 39 % 0.00 in
18:49 67.8 °F 41.4 °F 30.09 in NNW 6.0 mph 13.0 mph 38 % 0.00 in
18:54 67.6 °F 41.2 °F 30.10 in NW 4.0 mph 12.0 mph 38 % 0.00 in
18:59 67.6 °F 41.2 °F 30.10 in WNW 6.0 mph 13.0 mph 38 % 0.00 in
19:04 67.5 °F 40.3 °F 30.11 in NW 3.0 mph 13.0 mph 37 % 0.00 in
19:09 67.3 °F 40.8 °F 30.11 in WNW 4.0 mph 13.0 mph 38 % 0.00 in
19:14 67.1 °F 39.9 °F 30.11 in West 6.0 mph 13.0 mph 37 % 0.00 in
19:19 67.1 °F 39.2 °F 30.11 in NNW 4.0 mph 13.0 mph 36 % 0.00 in
19:24 66.9 °F 39.0 °F 30.12 in NW 7.0 mph 12.0 mph 36 % 0.00 in
19:29 66.7 °F 39.0 °F 30.12 in NNW 5.0 mph 13.0 mph 36 % 0.00 in
19:34 66.6 °F 38.8 °F 30.12 in Calm   14.0 mph 36 % 0.00 in
19:39 66.4 °F 39.9 °F 30.12 in NW 7.0 mph 14.0 mph 38 % 0.00 in
19:44 66.0 °F 39.0 °F 30.13 in NW 4.0 mph 14.0 mph 37 % 0.00 in
19:49 65.8 °F 38.8 °F 30.13 in NNE 5.0 mph 11.0 mph 37 % 0.00 in
19:54 65.8 °F 38.8 °F 30.13 in NW 2.0 mph 11.0 mph 37 % 0.00 in
19:59 65.7 °F 38.7 °F 30.14 in NNW 4.0 mph 11.0 mph 37 % 0.00 in
20:04 65.5 °F 38.5 °F 30.14 in NW 2.0 mph 10.0 mph 37 % 0.00 in
20:09 65.5 °F 38.5 °F 30.14 in NW 4.0 mph 10.0 mph 37 % 0.00 in
20:14 65.3 °F 38.3 °F 30.14 in NNW 5.0 mph 8.0 mph 37 % 0.00 in
20:19 65.1 °F 38.8 °F 30.15 in North 8.0 mph 8.0 mph 38 % 0.00 in
20:24 65.1 °F 38.1 °F 30.15 in NNW 4.0 mph 9.0 mph 37 % 0.00 in
20:29 65.1 °F 38.1 °F 30.15 in NNW 2.0 mph 12.0 mph 37 % 0.00 in
20:34 64.9 °F 37.4 °F 30.15 in NNW 5.0 mph 12.0 mph 36 % 0.00 in
20:39 64.9 °F 37.4 °F 30.16 in WNW 4.0 mph 12.0 mph 36 % 0.00 in
20:44 64.8 °F 37.9 °F 30.16 in NNW 2.0 mph 12.0 mph 37 % 0.00 in
20:49 64.6 °F 37.8 °F 30.16 in NNW 8.0 mph 10.0 mph 37 % 0.00 in
20:54 64.6 °F 37.0 °F 30.16 in North 5.0 mph 12.0 mph 36 % 0.00 in
20:59 64.4 °F 36.1 °F 30.16 in NNW 8.0 mph 13.0 mph 35 % 0.00 in
21:04 64.2 °F 36.0 °F 30.17 in NNW 6.0 mph 15.0 mph 35 % 0.00 in
21:09 64.0 °F 35.8 °F 30.17 in NNW 3.0 mph 15.0 mph 35 % 0.00 in
21:14 64.0 °F 35.1 °F 30.17 in North 5.0 mph 16.0 mph 34 % 0.00 in
21:19 63.9 °F 34.9 °F 30.17 in NW 6.0 mph 16.0 mph 34 % 0.00 in
21:24 63.7 °F 34.7 °F 30.17 in NNW 5.0 mph 16.0 mph 34 % 0.00 in
21:29 63.7 °F 34.0 °F 30.17 in NNW 5.0 mph 12.0 mph 33 % 0.00 in
21:34 63.3 °F 33.8 °F 30.18 in North 3.0 mph 11.0 mph 33 % 0.00 in
21:39 63.3 °F 33.8 °F 30.18 in NNW 2.0 mph 11.0 mph 33 % 0.00 in
21:44 63.1 °F 32.7 °F 30.18 in NNW 2.0 mph 11.0 mph 32 % 0.00 in
21:49 63.0 °F 32.7 °F 30.18 in NW 6.0 mph 11.0 mph 32 % 0.00 in
21:54 63.0 °F 32.7 °F 30.19 in NW 2.0 mph 11.0 mph 32 % 0.00 in
21:59 62.8 °F 31.6 °F 30.19 in NNW 4.0 mph 10.0 mph 31 % 0.00 in
22:04 62.8 °F 31.6 °F 30.19 in WNW 1.0 mph 13.0 mph 31 % 0.00 in
22:09 62.4 °F 32.2 °F 30.19 in NNW 5.0 mph 13.0 mph 32 % 0.00 in
22:14 62.4 °F 30.6 °F 30.19 in WNW 3.0 mph 13.0 mph 30 % 0.00 in
22:19 62.4 °F 31.5 °F 30.19 in WNW 3.0 mph 9.0 mph 31 % 0.00 in
22:24 62.2 °F 30.4 °F 30.19 in NW 3.0 mph 14.0 mph 30 % 0.00 in
22:29 62.1 °F 30.2 °F 30.19 in NNE 4.0 mph 14.0 mph 30 % 0.00 in
22:34 62.1 °F 30.2 °F 30.19 in NNW 3.0 mph 14.0 mph 30 % 0.00 in
22:39 61.7 °F 30.7 °F 30.19 in NW 1.0 mph 11.0 mph 31 % 0.00 in
22:44 61.7 °F 30.0 °F 30.20 in North 3.0 mph 11.0 mph 30 % 0.00 in
22:49 61.5 °F 29.8 °F 30.20 in North 4.0 mph 13.0 mph 30 % 0.00 in
22:55 61.3 °F 29.7 °F 30.20 in North 3.0 mph 13.0 mph 30 % 0.00 in
23:00 61.0 °F 29.3 °F 30.20 in NW 2.0 mph 13.0 mph 30 % 0.00 in
23:05 60.6 °F 29.8 °F 30.20 in NNW 4.0 mph 12.0 mph 31 % 0.00 in
23:10 60.4 °F 29.7 °F 30.20 in NW 3.0 mph 9.0 mph 31 % 0.00 in
23:15 60.3 °F 29.5 °F 30.20 in NW 1.0 mph 8.0 mph 31 % 0.00 in
23:20 59.9 °F 30.0 °F 30.21 in NW 1.0 mph 6.0 mph 32 % 0.00 in
23:25 59.7 °F 29.8 °F 30.20 in East 1.0 mph 7.0 mph 32 % 0.00 in
23:30 59.5 °F 29.7 °F 30.20 in NNW 5.0 mph 7.0 mph 32 % 0.00 in
23:35 59.4 °F 29.5 °F 30.21 in NW 2.0 mph 7.0 mph 32 % 0.00 in
23:40 59.2 °F 29.3 °F 30.21 in NW 3.0 mph 7.0 mph 32 % 0.00 in
23:45 59.2 °F 29.3 °F 30.21 in NNW 1.0 mph 7.0 mph 32 % 0.00 in
23:50 58.8 °F 29.8 °F 30.21 in NNW 4.0 mph 7.0 mph 33 % 0.00 in
23:55 58.6 °F 28.9 °F 30.21 in WNW 2.0 mph 7.0 mph 32 % 0.00 in
Spring, Texas: Villages of Bridgestone
Compliments of Weather Underground - 2.75 mb

Script developed by  Jim McMurry - jmcmurry@mwt.net Adapted for the template by  Wim van der Kuil - Leuven-Template.eu

You find our weather info also at:

UK Metoffice

WeatherCloud

Weather Underground

Mid-South Weather Network

AWEKAS

Citizen Weather Observer Program (CWOP)

HAMweather, WeatherForYou, PWS Weather

Equipment we use:

Weather-station
Davis Vantage Vue

Weather-program
Meteohub

Weather-server
Debian 7.9 x86 (Guest)

Provider
DreamHost

Davis Vantage Vue

Meteohub

Debian 7.9 x86 (Guest)

DreamHost